sensor_id;sensor_type;location;lat;lon;timestamp;P1;durP1;ratioP1;P2;durP2;ratioP2
38581;SDS011;24349;53.720;10.014;2022-07-29T00:00:01;6.05;;;2.10;;
38581;SDS011;24349;53.720;10.014;2022-07-29T00:02:29;5.43;;;2.00;;
38581;SDS011;24349;53.720;10.014;2022-07-29T00:04:56;5.50;;;1.92;;
38581;SDS011;24349;53.720;10.014;2022-07-29T00:07:22;4.68;;;1.92;;
38581;SDS011;24349;53.720;10.014;2022-07-29T00:09:48;4.63;;;1.88;;
38581;SDS011;24349;53.720;10.014;2022-07-29T00:12:14;6.00;;;2.28;;
38581;SDS011;24349;53.720;10.014;2022-07-29T00:14:40;6.57;;;1.90;;
38581;SDS011;24349;53.720;10.014;2022-07-29T00:17:05;5.70;;;2.30;;
38581;SDS011;24349;53.720;10.014;2022-07-29T00:19:31;6.60;;;2.20;;
38581;SDS011;24349;53.720;10.014;2022-07-29T00:21:57;5.82;;;2.17;;
38581;SDS011;24349;53.720;10.014;2022-07-29T00:24:22;5.40;;;2.25;;
38581;SDS011;24349;53.720;10.014;2022-07-29T00:26:48;6.75;;;2.33;;
38581;SDS011;24349;53.720;10.014;2022-07-29T00:29:14;5.40;;;1.98;;
38581;SDS011;24349;53.720;10.014;2022-07-29T00:31:39;7.10;;;2.40;;
38581;SDS011;24349;53.720;10.014;2022-07-29T00:34:05;4.00;;;1.88;;
38581;SDS011;24349;53.720;10.014;2022-07-29T00:36:51;7.57;;;2.63;;
38581;SDS011;24349;53.720;10.014;2022-07-29T00:39:16;8.20;;;2.10;;
38581;SDS011;24349;53.720;10.014;2022-07-29T00:41:42;6.15;;;1.73;;
38581;SDS011;24349;53.720;10.014;2022-07-29T00:44:07;8.05;;;2.60;;
38581;SDS011;24349;53.720;10.014;2022-07-29T00:46:33;5.32;;;2.15;;
38581;SDS011;24349;53.720;10.014;2022-07-29T00:48:59;5.30;;;2.10;;
38581;SDS011;24349;53.720;10.014;2022-07-29T00:51:25;8.80;;;2.20;;
38581;SDS011;24349;53.720;10.014;2022-07-29T00:53:52;7.03;;;2.30;;
38581;SDS011;24349;53.720;10.014;2022-07-29T00:56:18;5.80;;;2.30;;
38581;SDS011;24349;53.720;10.014;2022-07-29T00:58:44;4.95;;;2.25;;
38581;SDS011;24349;53.720;10.014;2022-07-29T01:01:12;7.93;;;2.35;;
38581;SDS011;24349;53.720;10.014;2022-07-29T01:03:38;4.97;;;2.05;;
38581;SDS011;24349;53.720;10.014;2022-07-29T01:06:03;5.80;;;2.05;;
38581;SDS011;24349;53.720;10.014;2022-07-29T01:08:29;6.70;;;2.05;;
38581;SDS011;24349;53.720;10.014;2022-07-29T01:10:57;6.05;;;2.40;;
38581;SDS011;24349;53.720;10.014;2022-07-29T01:13:24;7.55;;;2.45;;
38581;SDS011;24349;53.720;10.014;2022-07-29T01:15:58;7.95;;;2.70;;
38581;SDS011;24349;53.720;10.014;2022-07-29T01:18:30;8.07;;;2.58;;
38581;SDS011;24349;53.720;10.014;2022-07-29T01:29:24;5.50;;;2.10;;
38581;SDS011;24349;53.720;10.014;2022-07-29T01:32:13;5.10;;;2.53;;
38581;SDS011;24349;53.720;10.014;2022-07-29T01:40:02;7.40;;;3.03;;
38581;SDS011;24349;53.720;10.014;2022-07-29T01:42:37;5.60;;;2.30;;
38581;SDS011;24349;53.720;10.014;2022-07-29T01:45:15;7.80;;;2.70;;
38581;SDS011;24349;53.720;10.014;2022-07-29T01:47:52;6.70;;;3.08;;
38581;SDS011;24349;53.720;10.014;2022-07-29T01:50:23;7.05;;;2.75;;
38581;SDS011;24349;53.720;10.014;2022-07-29T01:52:58;6.47;;;2.63;;
38581;SDS011;24349;53.720;10.014;2022-07-29T01:55:29;7.05;;;2.95;;
38581;SDS011;24349;53.720;10.014;2022-07-29T01:57:58;5.20;;;2.53;;
38581;SDS011;24349;53.720;10.014;2022-07-29T02:00:26;5.88;;;2.83;;
38581;SDS011;24349;53.720;10.014;2022-07-29T02:02:52;6.95;;;2.88;;
38581;SDS011;24349;53.720;10.014;2022-07-29T02:05:20;6.72;;;2.78;;
38581;SDS011;24349;53.720;10.014;2022-07-29T02:07:48;6.30;;;2.33;;
38581;SDS011;24349;53.720;10.014;2022-07-29T02:10:16;7.57;;;2.60;;
38581;SDS011;24349;53.720;10.014;2022-07-29T02:12:46;4.80;;;2.40;;
38581;SDS011;24349;53.720;10.014;2022-07-29T02:15:13;6.03;;;2.55;;
38581;SDS011;24349;53.720;10.014;2022-07-29T02:17:46;5.43;;;2.72;;
38581;SDS011;24349;53.720;10.014;2022-07-29T02:20:16;7.57;;;2.67;;
38581;SDS011;24349;53.720;10.014;2022-07-29T02:22:42;5.95;;;2.47;;
38581;SDS011;24349;53.720;10.014;2022-07-29T02:25:09;6.72;;;3.00;;
38581;SDS011;24349;53.720;10.014;2022-07-29T02:27:36;8.82;;;3.13;;
38581;SDS011;24349;53.720;10.014;2022-07-29T02:30:03;7.15;;;2.83;;
38581;SDS011;24349;53.720;10.014;2022-07-29T02:32:30;7.93;;;2.90;;
38581;SDS011;24349;53.720;10.014;2022-07-29T02:34:59;8.90;;;3.20;;
38581;SDS011;24349;53.720;10.014;2022-07-29T02:37:26;7.65;;;2.80;;
38581;SDS011;24349;53.720;10.014;2022-07-29T02:39:54;10.45;;;3.83;;
38581;SDS011;24349;53.720;10.014;2022-07-29T02:42:21;6.10;;;2.90;;
38581;SDS011;24349;53.720;10.014;2022-07-29T02:44:48;7.15;;;3.15;;
38581;SDS011;24349;53.720;10.014;2022-07-29T02:47:24;6.63;;;3.05;;
38581;SDS011;24349;53.720;10.014;2022-07-29T02:50:09;5.63;;;2.88;;
38581;SDS011;24349;53.720;10.014;2022-07-29T02:52:47;7.75;;;3.42;;
38581;SDS011;24349;53.720;10.014;2022-07-29T02:55:23;5.45;;;2.63;;
38581;SDS011;24349;53.720;10.014;2022-07-29T02:57:49;5.60;;;2.63;;
38581;SDS011;24349;53.720;10.014;2022-07-29T03:00:27;6.28;;;2.80;;
38581;SDS011;24349;53.720;10.014;2022-07-29T03:02:55;9.20;;;3.03;;
38581;SDS011;24349;53.720;10.014;2022-07-29T03:05:24;6.60;;;2.97;;
38581;SDS011;24349;53.720;10.014;2022-07-29T03:07:51;6.55;;;3.28;;
38581;SDS011;24349;53.720;10.014;2022-07-29T03:10:20;5.40;;;2.70;;
38581;SDS011;24349;53.720;10.014;2022-07-29T03:12:47;6.68;;;3.03;;
38581;SDS011;24349;53.720;10.014;2022-07-29T03:15:13;6.03;;;3.13;;
38581;SDS011;24349;53.720;10.014;2022-07-29T03:17:39;6.25;;;2.63;;
38581;SDS011;24349;53.720;10.014;2022-07-29T03:20:07;10.80;;;3.00;;
38581;SDS011;24349;53.720;10.014;2022-07-29T03:22:34;7.47;;;3.15;;
38581;SDS011;24349;53.720;10.014;2022-07-29T03:25:08;6.35;;;2.75;;
38581;SDS011;24349;53.720;10.014;2022-07-29T03:27:35;7.80;;;3.03;;
38581;SDS011;24349;53.720;10.014;2022-07-29T03:30:01;6.18;;;3.05;;
38581;SDS011;24349;53.720;10.014;2022-07-29T03:32:26;5.82;;;2.78;;
38581;SDS011;24349;53.720;10.014;2022-07-29T03:34:52;7.63;;;2.65;;
38581;SDS011;24349;53.720;10.014;2022-07-29T03:37:18;5.50;;;2.42;;
38581;SDS011;24349;53.720;10.014;2022-07-29T03:39:43;7.30;;;2.83;;
38581;SDS011;24349;53.720;10.014;2022-07-29T03:42:12;6.82;;;2.50;;
38581;SDS011;24349;53.720;10.014;2022-07-29T03:44:40;7.07;;;2.97;;
38581;SDS011;24349;53.720;10.014;2022-07-29T03:47:09;6.20;;;3.08;;
38581;SDS011;24349;53.720;10.014;2022-07-29T03:49:38;6.70;;;3.00;;
38581;SDS011;24349;53.720;10.014;2022-07-29T03:52:05;7.15;;;3.40;;
38581;SDS011;24349;53.720;10.014;2022-07-29T03:54:32;7.22;;;3.58;;
38581;SDS011;24349;53.720;10.014;2022-07-29T03:56:59;8.68;;;3.60;;
38581;SDS011;24349;53.720;10.014;2022-07-29T03:59:26;9.13;;;3.42;;
38581;SDS011;24349;53.720;10.014;2022-07-29T04:01:52;7.15;;;3.60;;
38581;SDS011;24349;53.720;10.014;2022-07-29T04:04:20;6.57;;;2.90;;
38581;SDS011;24349;53.720;10.014;2022-07-29T04:06:46;7.18;;;3.10;;
38581;SDS011;24349;53.720;10.014;2022-07-29T04:09:12;8.50;;;3.38;;
38581;SDS011;24349;53.720;10.014;2022-07-29T04:11:39;10.90;;;3.80;;
38581;SDS011;24349;53.720;10.014;2022-07-29T04:14:05;7.22;;;2.97;;
38581;SDS011;24349;53.720;10.014;2022-07-29T04:16:31;6.97;;;3.40;;
38581;SDS011;24349;53.720;10.014;2022-07-29T04:18:57;5.93;;;3.30;;
38581;SDS011;24349;53.720;10.014;2022-07-29T04:21:23;6.30;;;2.95;;
38581;SDS011;24349;53.720;10.014;2022-07-29T04:23:49;8.10;;;3.00;;
38581;SDS011;24349;53.720;10.014;2022-07-29T04:26:19;6.47;;;2.83;;
38581;SDS011;24349;53.720;10.014;2022-07-29T04:28:45;7.00;;;3.25;;
38581;SDS011;24349;53.720;10.014;2022-07-29T04:31:11;6.30;;;3.35;;
38581;SDS011;24349;53.720;10.014;2022-07-29T04:33:38;6.57;;;2.97;;
38581;SDS011;24349;53.720;10.014;2022-07-29T04:36:04;5.97;;;3.03;;
38581;SDS011;24349;53.720;10.014;2022-07-29T04:38:30;8.35;;;3.17;;
38581;SDS011;24349;53.720;10.014;2022-07-29T04:40:56;9.38;;;3.40;;
38581;SDS011;24349;53.720;10.014;2022-07-29T04:43:21;9.13;;;3.28;;
38581;SDS011;24349;53.720;10.014;2022-07-29T04:45:47;7.78;;;3.15;;
38581;SDS011;24349;53.720;10.014;2022-07-29T04:48:13;6.13;;;3.20;;
38581;SDS011;24349;53.720;10.014;2022-07-29T04:50:39;6.45;;;2.90;;
38581;SDS011;24349;53.720;10.014;2022-07-29T04:53:05;6.50;;;2.80;;
38581;SDS011;24349;53.720;10.014;2022-07-29T04:55:31;6.57;;;2.90;;
38581;SDS011;24349;53.720;10.014;2022-07-29T04:57:57;7.30;;;3.35;;
38581;SDS011;24349;53.720;10.014;2022-07-29T05:00:22;6.55;;;2.90;;
38581;SDS011;24349;53.720;10.014;2022-07-29T05:02:48;7.38;;;3.10;;
38581;SDS011;24349;53.720;10.014;2022-07-29T05:05:14;11.52;;;3.28;;
38581;SDS011;24349;53.720;10.014;2022-07-29T05:07:40;6.63;;;3.03;;
38581;SDS011;24349;53.720;10.014;2022-07-29T05:10:06;5.90;;;2.78;;
38581;SDS011;24349;53.720;10.014;2022-07-29T05:12:32;7.22;;;3.00;;
38581;SDS011;24349;53.720;10.014;2022-07-29T05:14:58;7.20;;;3.28;;
38581;SDS011;24349;53.720;10.014;2022-07-29T05:17:24;8.05;;;3.28;;
38581;SDS011;24349;53.720;10.014;2022-07-29T05:19:50;7.30;;;2.70;;
38581;SDS011;24349;53.720;10.014;2022-07-29T05:22:17;6.38;;;2.90;;
38581;SDS011;24349;53.720;10.014;2022-07-29T05:24:46;8.05;;;3.05;;
38581;SDS011;24349;53.720;10.014;2022-07-29T05:27:12;6.85;;;3.25;;
38581;SDS011;24349;53.720;10.014;2022-07-29T05:29:38;7.80;;;3.50;;
38581;SDS011;24349;53.720;10.014;2022-07-29T05:32:03;6.57;;;2.85;;
38581;SDS011;24349;53.720;10.014;2022-07-29T05:34:30;8.57;;;3.00;;
38581;SDS011;24349;53.720;10.014;2022-07-29T05:36:56;7.65;;;2.88;;
38581;SDS011;24349;53.720;10.014;2022-07-29T05:39:22;7.85;;;3.15;;
38581;SDS011;24349;53.720;10.014;2022-07-29T05:41:48;7.43;;;2.75;;
38581;SDS011;24349;53.720;10.014;2022-07-29T05:44:14;7.53;;;3.08;;
38581;SDS011;24349;53.720;10.014;2022-07-29T05:46:39;6.82;;;3.17;;
38581;SDS011;24349;53.720;10.014;2022-07-29T05:49:05;7.75;;;3.00;;
38581;SDS011;24349;53.720;10.014;2022-07-29T05:51:32;8.98;;;2.85;;
38581;SDS011;24349;53.720;10.014;2022-07-29T05:53:59;5.63;;;2.90;;
38581;SDS011;24349;53.720;10.014;2022-07-29T05:56:24;6.10;;;2.70;;
38581;SDS011;24349;53.720;10.014;2022-07-29T05:58:50;7.43;;;3.13;;
38581;SDS011;24349;53.720;10.014;2022-07-29T06:01:17;5.95;;;2.90;;
38581;SDS011;24349;53.720;10.014;2022-07-29T06:03:42;6.32;;;2.70;;
38581;SDS011;24349;53.720;10.014;2022-07-29T06:06:09;6.65;;;3.17;;
38581;SDS011;24349;53.720;10.014;2022-07-29T06:08:35;7.85;;;3.13;;
38581;SDS011;24349;53.720;10.014;2022-07-29T06:11:01;9.45;;;3.08;;
38581;SDS011;24349;53.720;10.014;2022-07-29T06:13:28;6.88;;;2.70;;
38581;SDS011;24349;53.720;10.014;2022-07-29T06:15:54;5.95;;;2.50;;
38581;SDS011;24349;53.720;10.014;2022-07-29T06:18:20;7.80;;;2.65;;
38581;SDS011;24349;53.720;10.014;2022-07-29T06:20:48;7.75;;;2.90;;
38581;SDS011;24349;53.720;10.014;2022-07-29T06:23:15;6.68;;;2.83;;
38581;SDS011;24349;53.720;10.014;2022-07-29T06:25:41;8.38;;;2.60;;
38581;SDS011;24349;53.720;10.014;2022-07-29T06:28:06;5.45;;;2.58;;
38581;SDS011;24349;53.720;10.014;2022-07-29T06:30:32;6.43;;;3.10;;
38581;SDS011;24349;53.720;10.014;2022-07-29T06:32:58;13.00;;;3.58;;
38581;SDS011;24349;53.720;10.014;2022-07-29T06:35:25;9.07;;;3.20;;
38581;SDS011;24349;53.720;10.014;2022-07-29T06:37:51;6.78;;;2.70;;
38581;SDS011;24349;53.720;10.014;2022-07-29T06:40:17;8.23;;;2.90;;
38581;SDS011;24349;53.720;10.014;2022-07-29T06:43:01;8.23;;;2.33;;
38581;SDS011;24349;53.720;10.014;2022-07-29T06:45:27;8.52;;;2.50;;
38581;SDS011;24349;53.720;10.014;2022-07-29T06:47:52;7.82;;;2.65;;
38581;SDS011;24349;53.720;10.014;2022-07-29T06:50:18;5.65;;;2.70;;
38581;SDS011;24349;53.720;10.014;2022-07-29T06:52:44;5.68;;;2.40;;
38581;SDS011;24349;53.720;10.014;2022-07-29T06:55:09;5.60;;;2.30;;
38581;SDS011;24349;53.720;10.014;2022-07-29T06:57:35;6.05;;;2.20;;
38581;SDS011;24349;53.720;10.014;2022-07-29T07:00:01;5.75;;;2.40;;
38581;SDS011;24349;53.720;10.014;2022-07-29T07:02:29;6.10;;;2.58;;
38581;SDS011;24349;53.720;10.014;2022-07-29T07:04:55;7.93;;;2.40;;
38581;SDS011;24349;53.720;10.014;2022-07-29T07:07:21;8.45;;;2.80;;
38581;SDS011;24349;53.720;10.014;2022-07-29T07:09:47;7.30;;;2.50;;
38581;SDS011;24349;53.720;10.014;2022-07-29T07:12:12;6.78;;;2.70;;
38581;SDS011;24349;53.720;10.014;2022-07-29T07:14:38;6.30;;;2.75;;
38581;SDS011;24349;53.720;10.014;2022-07-29T07:17:05;8.38;;;2.70;;
38581;SDS011;24349;53.720;10.014;2022-07-29T07:19:32;4.82;;;2.03;;
38581;SDS011;24349;53.720;10.014;2022-07-29T07:21:57;4.90;;;1.90;;
38581;SDS011;24349;53.720;10.014;2022-07-29T07:24:23;6.30;;;2.67;;
38581;SDS011;24349;53.720;10.014;2022-07-29T07:26:48;8.30;;;2.75;;
38581;SDS011;24349;53.720;10.014;2022-07-29T07:29:14;6.82;;;2.72;;
38581;SDS011;24349;53.720;10.014;2022-07-29T07:31:40;5.68;;;2.42;;
38581;SDS011;24349;53.720;10.014;2022-07-29T07:34:06;6.68;;;2.42;;
38581;SDS011;24349;53.720;10.014;2022-07-29T07:36:31;6.68;;;2.33;;
38581;SDS011;24349;53.720;10.014;2022-07-29T07:38:57;5.15;;;2.50;;
38581;SDS011;24349;53.720;10.014;2022-07-29T07:41:23;6.82;;;2.47;;
38581;SDS011;24349;53.720;10.014;2022-07-29T07:43:48;5.72;;;2.33;;
38581;SDS011;24349;53.720;10.014;2022-07-29T07:46:14;6.05;;;2.00;;
38581;SDS011;24349;53.720;10.014;2022-07-29T07:48:40;7.97;;;2.60;;
38581;SDS011;24349;53.720;10.014;2022-07-29T07:51:06;8.45;;;2.40;;
38581;SDS011;24349;53.720;10.014;2022-07-29T07:53:32;5.38;;;2.25;;
38581;SDS011;24349;53.720;10.014;2022-07-29T07:55:58;6.65;;;2.20;;
38581;SDS011;24349;53.720;10.014;2022-07-29T07:58:24;5.50;;;2.30;;
38581;SDS011;24349;53.720;10.014;2022-07-29T08:00:50;4.53;;;2.22;;
38581;SDS011;24349;53.720;10.014;2022-07-29T08:03:16;5.30;;;2.38;;
38581;SDS011;24349;53.720;10.014;2022-07-29T08:05:41;6.18;;;2.42;;
38581;SDS011;24349;53.720;10.014;2022-07-29T08:08:07;7.55;;;2.53;;
38581;SDS011;24349;53.720;10.014;2022-07-29T08:10:32;5.75;;;2.60;;
38581;SDS011;24349;53.720;10.014;2022-07-29T08:13:17;5.40;;;2.20;;
38581;SDS011;24349;53.720;10.014;2022-07-29T08:15:43;5.82;;;2.42;;
38581;SDS011;24349;53.720;10.014;2022-07-29T08:18:10;6.95;;;2.42;;
38581;SDS011;24349;53.720;10.014;2022-07-29T08:20:37;5.13;;;2.20;;
38581;SDS011;24349;53.720;10.014;2022-07-29T08:23:04;5.38;;;2.30;;
38581;SDS011;24349;53.720;10.014;2022-07-29T08:25:33;5.60;;;2.28;;
38581;SDS011;24349;53.720;10.014;2022-07-29T08:28:01;10.00;;;2.65;;
38581;SDS011;24349;53.720;10.014;2022-07-29T08:30:27;6.97;;;2.35;;
38581;SDS011;24349;53.720;10.014;2022-07-29T08:32:53;8.65;;;2.55;;
38581;SDS011;24349;53.720;10.014;2022-07-29T08:35:19;6.22;;;2.60;;
38581;SDS011;24349;53.720;10.014;2022-07-29T08:37:45;5.38;;;2.42;;
38581;SDS011;24349;53.720;10.014;2022-07-29T08:40:12;4.82;;;2.10;;
38581;SDS011;24349;53.720;10.014;2022-07-29T08:42:39;4.72;;;2.10;;
38581;SDS011;24349;53.720;10.014;2022-07-29T08:45:05;5.32;;;2.20;;
38581;SDS011;24349;53.720;10.014;2022-07-29T08:47:31;9.00;;;2.00;;
38581;SDS011;24349;53.720;10.014;2022-07-29T08:49:58;7.85;;;2.40;;
38581;SDS011;24349;53.720;10.014;2022-07-29T08:52:25;7.38;;;2.50;;
38581;SDS011;24349;53.720;10.014;2022-07-29T08:54:51;8.68;;;2.63;;
38581;SDS011;24349;53.720;10.014;2022-07-29T08:57:18;4.57;;;2.00;;
38581;SDS011;24349;53.720;10.014;2022-07-29T08:59:44;7.35;;;2.25;;
38581;SDS011;24349;53.720;10.014;2022-07-29T09:02:15;6.35;;;2.20;;
38581;SDS011;24349;53.720;10.014;2022-07-29T09:04:48;5.00;;;2.22;;
38581;SDS011;24349;53.720;10.014;2022-07-29T09:07:14;5.38;;;2.47;;
38581;SDS011;24349;53.720;10.014;2022-07-29T09:09:42;7.00;;;2.35;;
38581;SDS011;24349;53.720;10.014;2022-07-29T09:12:08;6.05;;;2.22;;
38581;SDS011;24349;53.720;10.014;2022-07-29T09:14:37;6.30;;;2.50;;
38581;SDS011;24349;53.720;10.014;2022-07-29T09:17:03;5.03;;;2.30;;
38581;SDS011;24349;53.720;10.014;2022-07-29T09:19:30;6.03;;;2.20;;
38581;SDS011;24349;53.720;10.014;2022-07-29T09:22:01;7.32;;;2.45;;
38581;SDS011;24349;53.720;10.014;2022-07-29T09:27:10;4.90;;;1.98;;
38581;SDS011;24349;53.720;10.014;2022-07-29T09:29:42;5.38;;;2.30;;
38581;SDS011;24349;53.720;10.014;2022-07-29T09:32:08;5.82;;;1.88;;
38581;SDS011;24349;53.720;10.014;2022-07-29T09:34:35;6.18;;;2.22;;
38581;SDS011;24349;53.720;10.014;2022-07-29T09:37:02;6.18;;;2.20;;
38581;SDS011;24349;53.720;10.014;2022-07-29T09:39:29;6.93;;;2.28;;
38581;SDS011;24349;53.720;10.014;2022-07-29T09:42:02;6.60;;;2.13;;
38581;SDS011;24349;53.720;10.014;2022-07-29T09:44:46;5.13;;;1.98;;
38581;SDS011;24349;53.720;10.014;2022-07-29T09:47:14;6.30;;;2.10;;
38581;SDS011;24349;53.720;10.014;2022-07-29T09:49:53;5.50;;;2.28;;
38581;SDS011;24349;53.720;10.014;2022-07-29T09:52:22;5.90;;;2.05;;
38581;SDS011;24349;53.720;10.014;2022-07-29T09:54:49;6.05;;;2.20;;
38581;SDS011;24349;53.720;10.014;2022-07-29T09:57:23;9.32;;;2.28;;
38581;SDS011;24349;53.720;10.014;2022-07-29T10:00:00;5.25;;;1.75;;
38581;SDS011;24349;53.720;10.014;2022-07-29T10:02:35;4.65;;;2.08;;
38581;SDS011;24349;53.720;10.014;2022-07-29T10:05:03;6.63;;;2.20;;
38581;SDS011;24349;53.720;10.014;2022-07-29T10:07:43;5.72;;;1.98;;
38581;SDS011;24349;53.720;10.014;2022-07-29T10:10:25;5.25;;;1.80;;
38581;SDS011;24349;53.720;10.014;2022-07-29T10:12:59;5.75;;;1.80;;
38581;SDS011;24349;53.720;10.014;2022-07-29T10:15:31;6.85;;;2.00;;
38581;SDS011;24349;53.720;10.014;2022-07-29T10:17:59;6.57;;;1.92;;
38581;SDS011;24349;53.720;10.014;2022-07-29T10:20:25;8.82;;;2.00;;
38581;SDS011;24349;53.720;10.014;2022-07-29T10:22:52;10.18;;;1.90;;
38581;SDS011;24349;53.720;10.014;2022-07-29T10:25:19;4.53;;;1.83;;
38581;SDS011;24349;53.720;10.014;2022-07-29T10:27:45;5.22;;;1.85;;
38581;SDS011;24349;53.720;10.014;2022-07-29T10:30:13;5.55;;;1.60;;
38581;SDS011;24349;53.720;10.014;2022-07-29T10:32:46;5.60;;;1.80;;
38581;SDS011;24349;53.720;10.014;2022-07-29T10:40:40;6.43;;;1.70;;
38581;SDS011;24349;53.720;10.014;2022-07-29T10:43:44;5.50;;;1.92;;
38581;SDS011;24349;53.720;10.014;2022-07-29T10:46:11;5.95;;;1.98;;
38581;SDS011;24349;53.720;10.014;2022-07-29T10:57:19;4.63;;;1.80;;
38581;SDS011;24349;53.720;10.014;2022-07-29T11:05:06;4.80;;;1.60;;
38581;SDS011;24349;53.720;10.014;2022-07-29T11:07:33;6.63;;;1.90;;
38581;SDS011;24349;53.720;10.014;2022-07-29T11:26:14;5.55;;;2.00;;
38581;SDS011;24349;53.720;10.014;2022-07-29T11:28:55;5.63;;;1.90;;
38581;SDS011;24349;53.720;10.014;2022-07-29T11:39:47;9.32;;;1.80;;
38581;SDS011;24349;53.720;10.014;2022-07-29T11:45:02;4.22;;;1.80;;
38581;SDS011;24349;53.720;10.014;2022-07-29T11:50:14;5.18;;;1.85;;
38581;SDS011;24349;53.720;10.014;2022-07-29T11:52:42;6.30;;;1.90;;
38581;SDS011;24349;53.720;10.014;2022-07-29T11:55:19;6.05;;;1.90;;
38581;SDS011;24349;53.720;10.014;2022-07-29T11:57:56;6.88;;;1.90;;
38581;SDS011;24349;53.720;10.014;2022-07-29T12:00:36;6.38;;;2.17;;
38581;SDS011;24349;53.720;10.014;2022-07-29T12:03:04;4.57;;;1.88;;
38581;SDS011;24349;53.720;10.014;2022-07-29T12:05:38;4.80;;;1.80;;
38581;SDS011;24349;53.720;10.014;2022-07-29T12:08:09;4.72;;;1.90;;
38581;SDS011;24349;53.720;10.014;2022-07-29T12:10:37;6.50;;;1.90;;
38581;SDS011;24349;53.720;10.014;2022-07-29T12:13:04;5.68;;;2.08;;
38581;SDS011;24349;53.720;10.014;2022-07-29T12:15:29;4.15;;;1.73;;
38581;SDS011;24349;53.720;10.014;2022-07-29T12:17:56;6.05;;;1.90;;
38581;SDS011;24349;53.720;10.014;2022-07-29T12:20:26;7.68;;;1.70;;
38581;SDS011;24349;53.720;10.014;2022-07-29T12:25:19;5.93;;;2.00;;
38581;SDS011;24349;53.720;10.014;2022-07-29T12:27:47;5.25;;;1.90;;
38581;SDS011;24349;53.720;10.014;2022-07-29T12:30:22;6.57;;;1.75;;
38581;SDS011;24349;53.720;10.014;2022-07-29T12:32:48;5.47;;;1.80;;
38581;SDS011;24349;53.720;10.014;2022-07-29T12:35:15;6.93;;;1.95;;
38581;SDS011;24349;53.720;10.014;2022-07-29T12:37:44;6.47;;;2.22;;
38581;SDS011;24349;53.720;10.014;2022-07-29T12:40:13;5.88;;;2.03;;
38581;SDS011;24349;53.720;10.014;2022-07-29T12:42:42;5.75;;;1.75;;
38581;SDS011;24349;53.720;10.014;2022-07-29T12:45:40;5.70;;;2.05;;
38581;SDS011;24349;53.720;10.014;2022-07-29T12:48:07;5.10;;;2.22;;
38581;SDS011;24349;53.720;10.014;2022-07-29T12:50:34;4.47;;;1.83;;
38581;SDS011;24349;53.720;10.014;2022-07-29T12:53:08;6.40;;;2.13;;
38581;SDS011;24349;53.720;10.014;2022-07-29T12:55:38;6.82;;;2.00;;
38581;SDS011;24349;53.720;10.014;2022-07-29T12:58:04;4.50;;;2.05;;
38581;SDS011;24349;53.720;10.014;2022-07-29T13:00:30;5.57;;;2.10;;
38581;SDS011;24349;53.720;10.014;2022-07-29T13:02:56;5.30;;;2.20;;
38581;SDS011;24349;53.720;10.014;2022-07-29T13:05:23;5.72;;;1.92;;
38581;SDS011;24349;53.720;10.014;2022-07-29T13:08:16;6.50;;;1.95;;
38581;SDS011;24349;53.720;10.014;2022-07-29T13:10:44;4.88;;;1.83;;
38581;SDS011;24349;53.720;10.014;2022-07-29T13:13:11;4.60;;;1.85;;
38581;SDS011;24349;53.720;10.014;2022-07-29T13:15:39;5.45;;;1.90;;
38581;SDS011;24349;53.720;10.014;2022-07-29T13:20:54;5.05;;;1.70;;
38581;SDS011;24349;53.720;10.014;2022-07-29T13:23:21;7.95;;;2.38;;
38581;SDS011;24349;53.720;10.014;2022-07-29T13:25:47;5.93;;;1.80;;
38581;SDS011;24349;53.720;10.014;2022-07-29T13:28:12;5.43;;;1.90;;
38581;SDS011;24349;53.720;10.014;2022-07-29T13:30:41;4.93;;;1.75;;
38581;SDS011;24349;53.720;10.014;2022-07-29T13:33:07;6.53;;;1.98;;
38581;SDS011;24349;53.720;10.014;2022-07-29T13:35:33;4.80;;;1.90;;
38581;SDS011;24349;53.720;10.014;2022-07-29T13:37:59;6.13;;;1.80;;
38581;SDS011;24349;53.720;10.014;2022-07-29T13:40:24;8.45;;;2.10;;
38581;SDS011;24349;53.720;10.014;2022-07-29T13:42:51;5.57;;;1.90;;
38581;SDS011;24349;53.720;10.014;2022-07-29T13:45:16;6.35;;;2.10;;
38581;SDS011;24349;53.720;10.014;2022-07-29T13:47:42;5.70;;;2.05;;
38581;SDS011;24349;53.720;10.014;2022-07-29T13:50:08;7.22;;;1.88;;
38581;SDS011;24349;53.720;10.014;2022-07-29T13:52:35;6.95;;;2.38;;
38581;SDS011;24349;53.720;10.014;2022-07-29T13:55:02;6.25;;;2.15;;
38581;SDS011;24349;53.720;10.014;2022-07-29T13:57:28;4.90;;;1.65;;
38581;SDS011;24349;53.720;10.014;2022-07-29T13:59:54;6.28;;;2.10;;
38581;SDS011;24349;53.720;10.014;2022-07-29T14:02:21;8.00;;;2.33;;
38581;SDS011;24349;53.720;10.014;2022-07-29T14:04:47;3.90;;;1.70;;
38581;SDS011;24349;53.720;10.014;2022-07-29T14:07:12;5.78;;;2.20;;
38581;SDS011;24349;53.720;10.014;2022-07-29T14:09:38;5.38;;;1.80;;
38581;SDS011;24349;53.720;10.014;2022-07-29T14:12:04;4.82;;;2.05;;
38581;SDS011;24349;53.720;10.014;2022-07-29T14:14:29;7.50;;;2.28;;
38581;SDS011;24349;53.720;10.014;2022-07-29T14:16:57;5.03;;;1.95;;
38581;SDS011;24349;53.720;10.014;2022-07-29T14:19:23;5.25;;;2.00;;
38581;SDS011;24349;53.720;10.014;2022-07-29T14:21:49;5.65;;;2.00;;
38581;SDS011;24349;53.720;10.014;2022-07-29T14:24:15;5.90;;;2.20;;
38581;SDS011;24349;53.720;10.014;2022-07-29T14:26:40;6.13;;;2.05;;
38581;SDS011;24349;53.720;10.014;2022-07-29T14:29:06;7.18;;;2.00;;
38581;SDS011;24349;53.720;10.014;2022-07-29T14:31:32;8.55;;;2.10;;
38581;SDS011;24349;53.720;10.014;2022-07-29T14:33:57;8.80;;;2.30;;
38581;SDS011;24349;53.720;10.014;2022-07-29T14:36:23;9.52;;;2.10;;
38581;SDS011;24349;53.720;10.014;2022-07-29T14:38:49;6.95;;;2.00;;
38581;SDS011;24349;53.720;10.014;2022-07-29T14:41:14;5.28;;;2.05;;
38581;SDS011;24349;53.720;10.014;2022-07-29T14:43:40;4.65;;;1.90;;
38581;SDS011;24349;53.720;10.014;2022-07-29T14:46:06;5.00;;;1.90;;
38581;SDS011;24349;53.720;10.014;2022-07-29T14:48:32;7.03;;;2.15;;
38581;SDS011;24349;53.720;10.014;2022-07-29T14:50:58;5.18;;;1.90;;
38581;SDS011;24349;53.720;10.014;2022-07-29T14:53:24;4.53;;;1.70;;
38581;SDS011;24349;53.720;10.014;2022-07-29T14:55:50;7.88;;;2.15;;
38581;SDS011;24349;53.720;10.014;2022-07-29T14:58:15;5.35;;;2.20;;
38581;SDS011;24349;53.720;10.014;2022-07-29T15:00:41;5.35;;;2.00;;
38581;SDS011;24349;53.720;10.014;2022-07-29T15:03:07;4.82;;;1.95;;
38581;SDS011;24349;53.720;10.014;2022-07-29T15:05:35;4.57;;;1.90;;
38581;SDS011;24349;53.720;10.014;2022-07-29T15:08:01;7.45;;;1.98;;
38581;SDS011;24349;53.720;10.014;2022-07-29T15:10:27;6.63;;;2.35;;
38581;SDS011;24349;53.720;10.014;2022-07-29T15:12:53;5.88;;;2.08;;
38581;SDS011;24349;53.720;10.014;2022-07-29T15:15:19;4.95;;;2.10;;
38581;SDS011;24349;53.720;10.014;2022-07-29T15:17:46;8.25;;;2.53;;
38581;SDS011;24349;53.720;10.014;2022-07-29T15:20:12;5.70;;;2.05;;
38581;SDS011;24349;53.720;10.014;2022-07-29T15:22:37;6.75;;;1.95;;
38581;SDS011;24349;53.720;10.014;2022-07-29T15:25:04;10.57;;;2.20;;
38581;SDS011;24349;53.720;10.014;2022-07-29T15:27:30;11.07;;;1.98;;
38581;SDS011;24349;53.720;10.014;2022-07-29T15:29:56;5.38;;;2.08;;
38581;SDS011;24349;53.720;10.014;2022-07-29T15:32:22;5.95;;;2.00;;
38581;SDS011;24349;53.720;10.014;2022-07-29T15:34:48;4.93;;;1.85;;
38581;SDS011;24349;53.720;10.014;2022-07-29T15:37:13;6.03;;;2.00;;
38581;SDS011;24349;53.720;10.014;2022-07-29T15:39:39;5.25;;;1.80;;
38581;SDS011;24349;53.720;10.014;2022-07-29T15:42:05;7.00;;;1.80;;
38581;SDS011;24349;53.720;10.014;2022-07-29T15:44:31;6.28;;;1.90;;
38581;SDS011;24349;53.720;10.014;2022-07-29T15:46:57;5.22;;;1.70;;